La Ronge Airport
CYVC : now visible

Airfield :











YOU CAN JOIN US ON...

 
LOGIN :

Register | Disclaimer

   EN    FR    IT 

 









Legend :    VFR   Marginal VFR   IFR   Intensive IFR   Very Intensive IFR
Visi :
Ceiling :
>= 8 km
>= 3000ft
5 to 8 km
1000 to 3000 ft
1500m to 5 km
500 to 1000 ft
800 to 1500m
200 to 500 ft
< 800m
< 200 ft
Symbols :   Thunderstorms  Fog  Heavy snow  Heavy precipitations  Wind > 20 kt






- Airport Elevation : 1242 ft
- IATA code : YVC


CYVC - La Ronge

CURRENT METAR :
  • 281600Z 32010KT 15SM BKN016 BKN035 05/02 A3024 RMK SC7SC1 SC TR SLP260

EXPIRED METARs :
  • 281500Z 32009KT 15SM OVC017 04/02 A3023 RMK SC8 SLP258
  • 281400Z 31008KT 15SM BKN020 OVC080 04/02 A3022 RMK SC7AC1 SLP254

TAF TAF CYVC
Valid from the 28 at 13:00 until the 29 at 01:00 UTC


281238Z 2813/2901 32006KT P6SM BKN012 BKN070
TEMPO 2813/2815 5SM -DZ BR BKN008 BKN070
FM281500 32008KT P6SM BKN020 BKN090
TEMPO 2815/2819 BKN025 BKN090
FM281900 34008KT P6SM BKN030 RMK NXT FCST BY 281900Z
CZWG FIR / North America



MET'MAP, your aeronautical weather chart ! - Copyright ORBIFLY December 2007 - Disclaimer

ORBIFLY MET'MAP TEAM :

Programming & Development : Alexandra Zaïnal
Concept & original design : Baudouin d'Aumeries
Assistance for programming : Marc-Olivier Méhu
Technical & hardware support : Manuel Goepfert

Contact : metmap@orbifly.com




SOURCES & CREDITS :

   NOAA       Earth
Advisory